KRLD

Richland Airport

Richland, Washington, USA
METAR KRLD 252155Z AUTO 00000KT 10SM SCT120 28/12 A2979 RMK AO2 T02820116
Observed Flight Rules
May-25 @ 21:55 UTC (36 minutes ago) Visual Flight Rules
Visibility Clouds
10 miles
  • Scattered at 12,000' AGL
Temperatures Readings
Current 28°C / 82°F
Dewpoint 12°C / 54°F
Humidity 37%
Altimeter 29.79" Hg
Pressure 1009 hPa
Elevation 120
METAR KRLD 252155Z AUTO 00000KT 10SM SCT120 28/12 A2979 RMK AO2 T02820116
Observed Flight Rules
May-25 @ 21:55 UTC
(36 minutes ago)
VFR
Clouds
  • Scattered at 12,000' AGL
Temperature Dewpoint
28°C / 82°F 12°C / 54°F
Humidity Altimeter Pressure
37% 29.79" Hg 1009 hPa